Asbury, Iowa
Current Conditions -  °F | °C
As of 5:53 AM on Monday 20 Oct 2014 (Local Time) from KDBQ Reporting Station
Clear Clear  
Wind Chill: 44°   Ceiling: Unl
Heat Index: 49°   Visibility: 10mi
Dew Point: 43°   Wind: 14mph
Humidity: 80%   Direction: 330°NNW
Pressure: 29.87"   Gusts: NA
Location:  42.522°N, 90.7782°W
Report Text: KDBQ 201053Z 33012KT 10SM CLR 09/06 A2987 RMK AO2 SLP116 T00940061 $
Loading
Personal Weather Stations






























Interactive Weather Map New forecast layout! Learn more

10-Day Weather Forecast

Advertisements
Track Severe Weather on mobile